Time;durP1;ratioP1;P1;durP2;ratioP2;P2;SDS_P1;SDS_P2;PMS_P1;PMS_P2;Temp;Humidity;BMP_temperature;BMP_pressure;BME280_temperature;BME280_humidity;BME280_pressure;Samples;Min_cycle;Max_cycle;Signal;HPM_P1;HPM_P2
2022/11/20 00:00:10;;;;;;;10.23;9.73;;;;;;;-143.83;100.00;62900.06;4932639;29;20032;-74
2022/11/20 00:02:36;;;;;;;10.98;10.38;;;;;;;-143.83;100.00;62900.06;4928965;29;20026;-74
2022/11/20 00:05:01;;;;;;;10.63;10.13;;;;;;;-143.83;100.00;62900.06;4926569;29;20044;-74
2022/11/20 00:07:27;;;;;;;10.30;9.80;;;;;;;-143.83;100.00;62900.06;4926984;29;20039;-73
2022/11/20 00:09:52;;;;;;;10.27;9.77;;;;;;;-143.83;100.00;62900.06;4924873;29;20051;-72
2022/11/20 00:12:20;;;;;;;10.40;9.90;;;;;;;-143.83;100.00;62900.06;4923347;29;20463;-72
2022/11/20 00:14:46;;;;;;;10.20;9.70;;;;;;;-143.83;100.00;62900.06;4904495;29;20028;-73
2022/11/20 00:17:11;;;;;;;10.15;9.65;;;;;;;-143.83;100.00;62900.06;4922461;29;20648;-72
2022/11/20 00:19:37;;;;;;;10.93;10.32;;;;;;;-143.83;100.00;62900.06;4892970;29;20039;-70
2022/11/20 00:22:02;;;;;;;10.32;9.82;;;;;;;-143.83;100.00;62900.06;4931018;29;20027;-74
2022/11/20 00:24:28;;;;;;;10.10;9.60;;;;;;;-143.83;100.00;62900.06;4922331;29;20500;-74
2022/11/20 00:26:53;;;;;;;10.30;9.80;;;;;;;-143.83;100.00;62900.06;4927911;29;20035;-74
2022/11/20 00:29:19;;;;;;;10.50;10.00;;;;;;;-143.83;100.00;62900.06;4912582;29;20040;-74
2022/11/20 00:31:44;;;;;;;10.13;9.63;;;;;;;-143.83;100.00;62900.06;4926786;29;20028;-74
2022/11/20 00:34:10;;;;;;;10.40;9.90;;;;;;;-143.83;100.00;62900.06;4921851;29;20456;-72
2022/11/20 00:36:36;;;;;;;10.13;9.63;;;;;;;-143.83;100.00;62900.06;4924081;29;20034;-72
2022/11/20 00:39:03;;;;;;;10.85;10.25;;;;;;;-143.83;100.00;62900.06;4927290;29;20039;-73
2022/11/20 00:41:30;;;;;;;10.48;9.98;;;;;;;-143.83;100.00;62900.06;4926564;29;20032;-73
2022/11/20 00:43:56;;;;;;;10.30;9.80;;;;;;;-143.83;100.00;62900.06;4907068;29;20043;-73
2022/11/20 00:46:23;;;;;;;10.45;9.95;;;;;;;-143.83;100.00;62900.06;4928353;29;20024;-73
2022/11/20 00:48:49;;;;;;;10.30;9.80;;;;;;;-143.83;100.00;62900.06;4923693;29;20032;-73
2022/11/20 00:51:18;;;;;;;10.50;10.00;;;;;;;-143.83;100.00;62900.06;4904235;29;20385;-73
2022/11/20 00:53:45;;;;;;;10.60;10.07;;;;;;;-143.83;100.00;62900.06;4925839;29;20038;-72
2022/11/20 00:56:12;;;;;;;10.75;10.15;;;;;;;-143.83;100.00;62900.06;4927044;29;20027;-73
2022/11/20 00:58:40;;;;;;;10.95;10.38;;;;;;;-143.83;100.00;62900.06;4929255;29;20321;-72
2022/11/20 01:01:20;;;;;;;10.88;10.27;;;;;;;-143.83;100.00;62900.06;4925952;29;20031;-73
2022/11/20 01:03:48;;;;;;;10.50;10.00;;;;;;;-143.83;100.00;62900.06;4907399;29;20115;-73
2022/11/20 01:06:17;;;;;;;11.15;10.55;;;;;;;-143.83;100.00;62900.06;4925835;29;20035;-73
2022/11/20 01:08:44;;;;;;;11.00;10.40;;;;;;;-143.83;100.00;62900.06;4910263;29;20038;-72
2022/11/20 01:11:15;;;;;;;10.60;10.10;;;;;;;-143.83;100.00;62900.06;4923689;29;20032;-72
2022/11/20 01:13:44;;;;;;;10.65;10.13;;;;;;;-143.83;100.00;62900.06;4910009;29;20032;-72
2022/11/20 01:16:25;;;;;;;10.50;10.00;;;;;;;-143.83;100.00;62900.06;4904908;29;20119;-72
2022/11/20 01:18:53;;;;;;;10.57;10.07;;;;;;;-143.83;100.00;62900.06;4925853;29;20032;-72
2022/11/20 01:21:21;;;;;;;10.63;10.13;;;;;;;-143.83;100.00;62900.06;4912281;29;20036;-72
2022/11/20 01:23:49;;;;;;;11.05;10.45;;;;;;;-143.83;100.00;62900.06;4912667;29;20056;-72
2022/11/20 01:26:20;;;;;;;10.57;10.07;;;;;;;-143.83;100.00;62900.06;4928308;29;20024;-74
2022/11/20 01:28:46;;;;;;;10.52;10.02;;;;;;;-143.83;100.00;62900.06;4921654;29;20036;-73
2022/11/20 01:31:24;;;;;;;11.15;10.55;;;;;;;-143.83;100.00;62900.06;4926083;29;20064;-73
2022/11/20 01:33:52;;;;;;;11.18;10.57;;;;;;;-143.83;100.00;62900.06;4923683;29;20039;-72
2022/11/20 01:36:19;;;;;;;10.50;10.00;;;;;;;-143.83;100.00;62900.06;4925367;29;20024;-72
2022/11/20 01:38:45;;;;;;;10.20;9.70;;;;;;;-143.83;100.00;62900.06;4929464;29;20027;-72
2022/11/20 01:43:58;;;;;;;10.20;9.70;;;;;;;-143.83;100.00;62900.06;4923034;29;20155;-71
2022/11/20 01:46:24;;;;;;;10.60;10.10;;;;;;;-143.83;100.00;62900.06;4928931;29;20082;-74
2022/11/20 01:49:03;;;;;;;10.30;9.80;;;;;;;-143.83;100.00;62900.06;4909236;29;20470;-73
2022/11/20 01:51:50;;;;;;;10.30;9.80;;;;;;;-143.83;100.00;62900.06;4923983;29;20151;-74
2022/11/20 01:54:21;;;;;;;10.63;10.13;;;;;;;-143.83;100.00;62900.06;4907085;29;20387;-76
2022/11/20 01:56:51;;;;;;;10.50;10.00;;;;;;;-143.83;100.00;62900.06;4926011;29;20028;-73
2022/11/20 01:59:19;;;;;;;11.05;10.45;;;;;;;-143.83;100.00;62900.06;4922783;29;20020;-73
2022/11/20 02:01:44;;;;;;;10.32;9.82;;;;;;;-143.83;100.00;62900.06;4931137;29;20031;-74
2022/11/20 02:04:11;;;;;;;10.55;10.05;;;;;;;-143.83;100.00;62900.06;4927570;29;20032;-74
2022/11/20 02:06:44;;;;;;;10.82;10.25;;;;;;;-143.83;100.00;62900.06;4922756;29;20028;-73
2022/11/20 02:09:10;;;;;;;10.75;10.25;;;;;;;-143.83;100.00;62900.06;4925636;29;20032;-74
2022/11/20 02:11:35;;;;;;;10.23;9.73;;;;;;;-143.83;100.00;62900.06;4923394;29;20114;-74
2022/11/20 02:14:01;;;;;;;10.25;9.75;;;;;;;-143.83;100.00;62900.06;4908813;29;20147;-73
2022/11/20 02:16:36;;;;;;;10.90;10.30;;;;;;;-143.83;100.00;62900.06;4926936;29;20032;-74
2022/11/20 02:19:06;;;;;;;10.40;9.90;;;;;;;-143.83;100.00;62900.06;4926037;29;20035;-73
2022/11/20 02:21:44;;;;;;;10.30;9.80;;;;;;;-143.83;100.00;62900.06;4929887;29;20395;-73
2022/11/20 02:24:13;;;;;;;10.70;10.15;;;;;;;-143.83;100.00;62900.06;4925333;29;20131;-73
2022/11/20 02:26:46;;;;;;;11.07;10.48;;;;;;;-143.83;100.00;62900.06;4926753;29;20093;-73
2022/11/20 02:29:13;;;;;;;11.20;10.60;;;;;;;-143.83;100.00;62900.06;4929408;29;20122;-74
2022/11/20 02:31:42;;;;;;;10.13;9.63;;;;;;;-143.83;100.00;62900.06;4928960;29;20059;-73
2022/11/20 02:34:08;;;;;;;10.20;9.70;;;;;;;-143.83;100.00;62900.06;4931942;29;20036;-73
2022/11/20 02:36:35;;;;;;;9.98;9.48;;;;;;;-143.83;100.00;62900.06;4908673;29;20431;-73
2022/11/20 02:39:02;;;;;;;10.10;9.60;;;;;;;-143.83;100.00;62900.06;4926479;29;20030;-73
2022/11/20 02:41:38;;;;;;;10.27;9.77;;;;;;;-143.83;100.00;62900.06;4911272;29;20680;-73
2022/11/20 02:44:04;;;;;;;9.88;9.40;;;;;;;-143.83;100.00;62900.06;4910629;29;20055;-74
2022/11/20 02:46:31;;;;;;;10.05;9.55;;;;;;;-143.83;100.00;62900.06;4929067;29;20063;-74
2022/11/20 02:48:57;;;;;;;9.82;9.32;;;;;;;-143.83;100.00;62900.06;4929661;29;20093;-74
2022/11/20 02:51:23;;;;;;;10.40;9.90;;;;;;;-143.83;100.00;62900.06;4907805;29;20024;-75
2022/11/20 02:53:48;;;;;;;10.23;9.73;;;;;;;-143.83;100.00;62900.06;4910407;29;20115;-73
2022/11/20 02:56:14;;;;;;;10.25;9.75;;;;;;;-143.83;100.00;62900.06;4915079;29;20031;-73
2022/11/20 02:58:39;;;;;;;10.50;10.00;;;;;;;-143.83;100.00;62900.06;4927530;29;20028;-73
2022/11/20 03:01:05;;;;;;;10.57;10.00;;;;;;;-143.83;100.00;62900.06;4932326;29;20023;-74
2022/11/20 03:03:30;;;;;;;10.27;9.77;;;;;;;-143.83;100.00;62900.06;4930131;29;20031;-74
2022/11/20 03:05:58;;;;;;;10.20;9.70;;;;;;;-143.83;100.00;62900.06;4928099;29;20035;-70
2022/11/20 03:08:24;;;;;;;10.85;10.25;;;;;;;-143.83;100.00;62900.06;4930474;29;20438;-72
2022/11/20 03:10:50;;;;;;;10.18;9.68;;;;;;;-143.83;100.00;62900.06;4909720;29;20035;-74
2022/11/20 03:13:16;;;;;;;10.55;10.05;;;;;;;-143.83;100.00;62900.06;4930234;29;20363;-74
2022/11/20 03:15:41;;;;;;;10.52;10.02;;;;;;;-143.83;100.00;62900.06;4930478;29;20042;-74
2022/11/20 03:18:07;;;;;;;10.55;10.05;;;;;;;-143.83;100.00;62900.06;4934466;29;20035;-72
2022/11/20 03:20:33;;;;;;;9.93;9.43;;;;;;;-143.83;100.00;62900.06;4926306;29;20102;-74
2022/11/20 03:22:59;;;;;;;10.05;9.55;;;;;;;-143.83;100.00;62900.06;4925054;29;20092;-74
2022/11/20 03:25:25;;;;;;;10.70;10.13;;;;;;;-143.83;100.00;62900.06;4911894;29;20574;-73
2022/11/20 03:27:50;;;;;;;10.35;9.85;;;;;;;-143.83;100.00;62900.06;4910491;29;20086;-73
2022/11/20 03:30:16;;;;;;;11.02;10.43;;;;;;;-143.83;100.00;62900.06;4920563;29;20032;-72
2022/11/20 03:32:42;;;;;;;10.23;9.73;;;;;;;-143.83;100.00;62900.06;4922823;29;20040;-73
2022/11/20 03:35:08;;;;;;;9.98;9.48;;;;;;;-143.83;100.00;62900.06;4912077;29;20107;-74
2022/11/20 03:37:33;;;;;;;10.45;9.95;;;;;;;-143.83;100.00;62900.06;4924850;29;20035;-73
2022/11/20 03:39:59;;;;;;;10.18;9.68;;;;;;;-143.83;100.00;62900.06;4923638;29;20553;-74
2022/11/20 03:45:09;;;;;;;10.30;9.80;;;;;;;-143.83;100.00;62900.06;4930067;29;20039;-73
2022/11/20 03:47:34;;;;;;;10.23;9.73;;;;;;;-143.83;100.00;62900.06;4929533;29;20032;-73
2022/11/20 03:50:00;;;;;;;10.40;9.90;;;;;;;-143.83;100.00;62900.06;4915421;29;20036;-73
2022/11/20 03:52:25;;;;;;;10.25;9.75;;;;;;;-143.83;100.00;62900.06;4925964;29;20542;-74
2022/11/20 03:54:51;;;;;;;10.30;9.80;;;;;;;-143.83;100.00;62900.06;4911197;29;20039;-73
2022/11/20 03:57:16;;;;;;;10.52;10.02;;;;;;;-143.83;100.00;62900.06;4923387;29;20047;-72
2022/11/20 03:59:42;;;;;;;10.18;9.68;;;;;;;-143.83;100.00;62900.06;4925097;29;20038;-72
2022/11/20 04:02:07;;;;;;;9.98;9.48;;;;;;;-143.83;100.00;62900.06;4923298;29;20039;-73
2022/11/20 04:04:33;;;;;;;11.05;10.45;;;;;;;-143.83;100.00;62900.06;4910274;29;20714;-72
2022/11/20 04:06:59;;;;;;;10.27;9.77;;;;;;;-143.83;100.00;62900.06;4894016;29;20479;-71
2022/11/20 04:09:25;;;;;;;10.40;9.90;;;;;;;-143.83;100.00;62900.06;4905071;29;20023;-72
2022/11/20 04:11:50;;;;;;;10.48;9.98;;;;;;;-143.83;100.00;62900.06;4924581;29;20344;-72
2022/11/20 04:14:16;;;;;;;10.65;10.07;;;;;;;-143.83;100.00;62900.06;4911941;29;20040;-71
2022/11/20 04:16:42;;;;;;;10.32;9.82;;;;;;;-143.83;100.00;62900.06;4926298;29;20107;-72
2022/11/20 04:19:13;;;;;;;9.93;9.43;;;;;;;-143.83;100.00;62900.06;4921415;29;20032;-71
2022/11/20 04:21:39;;;;;;;10.93;10.32;;;;;;;-143.83;100.00;62900.06;4928321;29;20028;-72
2022/11/20 04:24:07;;;;;;;10.10;9.60;;;;;;;-143.83;100.00;62900.06;4930230;29;20054;-73
2022/11/20 04:26:33;;;;;;;10.93;10.32;;;;;;;-143.83;100.00;62900.06;4929499;29;20094;-72
2022/11/20 04:29:01;;;;;;;10.35;9.85;;;;;;;-143.83;100.00;62900.06;4926263;29;20514;-72
2022/11/20 04:31:29;;;;;;;10.85;10.25;;;;;;;-143.83;100.00;62900.06;4928905;29;20107;-71
2022/11/20 04:33:58;;;;;;;10.15;9.65;;;;;;;-143.83;100.00;62900.06;4923929;29;20460;-73
2022/11/20 04:36:25;;;;;;;10.80;10.20;;;;;;;-143.83;100.00;62900.06;4906134;29;20035;-74
2022/11/20 04:38:59;;;;;;;10.27;9.77;;;;;;;-143.83;100.00;62900.06;4929193;29;20060;-74
2022/11/20 04:41:28;;;;;;;10.70;10.10;;;;;;;-143.83;100.00;62900.06;4922603;29;20035;-75
2022/11/20 04:44:01;;;;;;;10.10;9.60;;;;;;;-143.83;100.00;62900.06;4926356;29;20078;-74
2022/11/20 04:46:27;;;;;;;9.82;9.35;;;;;;;-143.83;100.00;62900.06;4910227;29;20032;-73
2022/11/20 04:48:53;;;;;;;10.85;10.25;;;;;;;-143.83;100.00;62900.06;4921222;29;20065;-74
2022/11/20 04:51:18;;;;;;;10.05;9.55;;;;;;;-143.83;100.00;62900.06;4904870;29;20039;-73
2022/11/20 04:53:44;;;;;;;10.50;10.00;;;;;;;-143.83;100.00;62900.06;4927589;29;20039;-74
2022/11/20 04:56:12;;;;;;;9.95;9.45;;;;;;;-143.83;100.00;62900.06;4923741;29;20043;-73
2022/11/20 04:58:38;;;;;;;10.30;9.80;;;;;;;-143.83;100.00;62900.06;4929825;29;20047;-73
2022/11/20 05:01:28;;;;;;;9.40;9.00;;;;;;;-143.83;100.00;62900.06;4920826;29;20028;-74
2022/11/20 05:03:54;;;;;;;10.52;10.00;;;;;;;-143.83;100.00;62900.06;4927953;29;20067;-74
2022/11/20 05:06:21;;;;;;;9.80;9.30;;;;;;;-143.83;100.00;62900.06;4927922;29;20032;-73
2022/11/20 05:08:48;;;;;;;10.02;9.52;;;;;;;-143.83;100.00;62900.06;4917656;29;20034;-73
2022/11/20 05:11:16;;;;;;;10.00;9.50;;;;;;;-143.83;100.00;62900.06;4926820;29;20413;-73
2022/11/20 05:13:42;;;;;;;9.93;9.43;;;;;;;-143.83;100.00;62900.06;4925105;29;20036;-74
2022/11/20 05:16:13;;;;;;;10.07;9.57;;;;;;;-143.83;100.00;62900.06;4925726;29;20028;-72
2022/11/20 05:18:39;;;;;;;10.00;9.50;;;;;;;-143.83;100.00;62900.06;4914345;29;20023;-73
2022/11/20 05:21:06;;;;;;;9.70;9.20;;;;;;;-143.83;100.00;62900.06;4922734;29;20032;-70
2022/11/20 05:23:32;;;;;;;10.38;9.88;;;;;;;-143.83;100.00;62900.06;4921631;29;20039;-75
2022/11/20 05:25:58;;;;;;;10.30;9.80;;;;;;;-143.83;100.00;62900.06;4909511;29;20028;-75
2022/11/20 05:28:25;;;;;;;10.25;9.75;;;;;;;-143.83;100.00;62900.06;4927029;29;20118;-74
2022/11/20 05:30:51;;;;;;;10.45;9.95;;;;;;;-143.83;100.00;62900.06;4907630;29;20024;-75
2022/11/20 05:33:17;;;;;;;10.45;9.95;;;;;;;-143.83;100.00;62900.06;4925253;29;20028;-75
2022/11/20 05:35:43;;;;;;;10.55;10.02;;;;;;;-143.83;100.00;62900.06;4928209;29;20058;-75
2022/11/20 05:38:08;;;;;;;10.48;9.98;;;;;;;-143.83;100.00;62900.06;4922806;29;20055;-76
2022/11/20 05:40:34;;;;;;;10.00;9.50;;;;;;;-143.83;100.00;62900.06;4927383;29;20554;-73
2022/11/20 05:43:00;;;;;;;10.02;9.52;;;;;;;-143.83;100.00;62900.06;4925587;29;20040;-73
2022/11/20 05:45:25;;;;;;;10.00;9.50;;;;;;;-143.83;100.00;62900.06;4925559;29;20039;-72
2022/11/20 05:47:51;;;;;;;11.18;10.57;;;;;;;-143.83;100.00;62900.06;4908317;29;20035;-73
2022/11/20 05:50:16;;;;;;;10.40;9.88;;;;;;;-143.83;100.00;62900.06;4930731;29;20063;-72
2022/11/20 05:52:42;;;;;;;10.68;10.13;;;;;;;-143.83;100.00;62900.06;4928286;29;20031;-74
2022/11/20 05:55:08;;;;;;;10.10;9.60;;;;;;;-143.83;100.00;62900.06;4922390;29;20508;-74
2022/11/20 05:57:33;;;;;;;10.25;9.75;;;;;;;-143.83;100.00;62900.06;4926188;29;20115;-74
2022/11/20 05:59:59;;;;;;;10.77;10.20;;;;;;;-143.83;100.00;62900.06;4893559;29;20042;-74
2022/11/20 06:02:24;;;;;;;10.30;9.80;;;;;;;-143.83;100.00;62900.06;4923884;29;20028;-74
2022/11/20 06:04:50;;;;;;;9.98;9.48;;;;;;;-143.83;100.00;62900.06;4924670;29;20025;-74
2022/11/20 06:07:15;;;;;;;10.23;9.73;;;;;;;-143.83;100.00;62900.06;4912028;29;20046;-73
2022/11/20 06:09:41;;;;;;;10.35;9.85;;;;;;;-143.83;100.00;62900.06;4921300;29;20599;-72
2022/11/20 06:12:07;;;;;;;10.70;10.15;;;;;;;-143.83;100.00;62900.06;4922319;29;20050;-73
2022/11/20 06:14:33;;;;;;;10.80;10.20;;;;;;;-143.83;100.00;62900.06;4910146;29;20031;-73
2022/11/20 06:16:59;;;;;;;9.90;9.40;;;;;;;-143.83;100.00;62900.06;4908063;29;20032;-73
2022/11/20 06:19:24;;;;;;;10.20;9.70;;;;;;;-143.83;100.00;62900.06;4911437;29;20399;-72
2022/11/20 06:21:50;;;;;;;10.75;10.15;;;;;;;-143.83;100.00;62900.06;4924998;29;20035;-73
2022/11/20 06:24:17;;;;;;;10.10;9.60;;;;;;;-143.83;100.00;62900.06;4890561;29;20524;-73
2022/11/20 06:26:43;;;;;;;9.90;9.40;;;;;;;-143.83;100.00;62900.06;4906375;29;20032;-73
2022/11/20 06:29:10;;;;;;;9.82;9.32;;;;;;;-143.83;100.00;62900.06;4928822;29;20116;-74
2022/11/20 06:31:37;;;;;;;11.23;10.63;;;;;;;-143.83;100.00;62900.06;4911085;29;20036;-73
2022/11/20 06:34:05;;;;;;;11.07;10.48;;;;;;;-143.83;100.00;62900.06;4908376;29;20023;-72
2022/11/20 06:36:30;;;;;;;9.45;9.05;;;;;;;-143.83;100.00;62900.06;4911346;29;20518;-73
2022/11/20 06:38:56;;;;;;;10.02;9.52;;;;;;;-143.83;100.00;62900.06;4929742;29;20075;-73
2022/11/20 06:41:22;;;;;;;10.20;9.70;;;;;;;-143.83;100.00;62900.06;4914051;29;20402;-73
2022/11/20 06:43:48;;;;;;;10.20;9.70;;;;;;;-143.83;100.00;62900.06;4932147;29;20083;-73
2022/11/20 06:46:17;;;;;;;11.35;10.75;;;;;;;-143.83;100.00;62900.06;4929021;29;20039;-73
2022/11/20 06:48:42;;;;;;;10.35;9.82;;;;;;;-143.83;100.00;62900.06;4901898;29;20040;-73
2022/11/20 06:51:08;;;;;;;10.10;9.60;;;;;;;-143.83;100.00;62900.06;4904444;29;20064;-74
2022/11/20 06:53:35;;;;;;;9.85;9.35;;;;;;;-143.83;100.00;62900.06;4918281;29;20103;-73
2022/11/20 06:56:00;;;;;;;9.95;9.45;;;;;;;-143.83;100.00;62900.06;4908428;29;20503;-69
2022/11/20 06:58:27;;;;;;;11.93;11.23;;;;;;;-143.83;100.00;62900.06;4931919;29;20142;-68
2022/11/20 07:00:53;;;;;;;11.30;10.70;;;;;;;-143.83;100.00;62900.06;4928279;29;20391;-67
2022/11/20 07:03:19;;;;;;;10.20;9.70;;;;;;;-143.83;100.00;62900.06;4907832;29;20046;-68
2022/11/20 07:05:45;;;;;;;10.55;9.95;;;;;;;-143.83;100.00;62900.06;4913379;29;20043;-68
2022/11/20 07:08:11;;;;;;;12.07;11.40;;;;;;;-143.83;100.00;62900.06;4908333;29;20500;-68
2022/11/20 07:10:37;;;;;;;10.70;10.10;;;;;;;-143.83;100.00;62900.06;4914614;29;20119;-72
2022/11/20 07:13:03;;;;;;;9.85;9.35;;;;;;;-143.83;100.00;62900.06;4928022;29;20135;-71
2022/11/20 07:15:28;;;;;;;10.07;9.57;;;;;;;-143.83;100.00;62900.06;4927365;29;20391;-71
2022/11/20 07:17:58;;;;;;;10.00;9.50;;;;;;;-143.83;100.00;62900.06;4912865;29;20028;-71
2022/11/20 07:20:23;;;;;;;10.52;10.00;;;;;;;-143.83;100.00;62900.06;4912241;29;20444;-71
2022/11/20 07:22:55;;;;;;;9.77;9.27;;;;;;;-143.83;100.00;62900.06;4918229;29;20135;-72
2022/11/20 07:25:22;;;;;;;10.32;9.82;;;;;;;-143.83;100.00;62900.06;4929080;29;20024;-72
2022/11/20 07:27:49;;;;;;;10.32;9.82;;;;;;;-143.83;100.00;62900.06;4928200;29;20024;-70
2022/11/20 07:30:15;;;;;;;10.35;9.82;;;;;;;-143.83;100.00;62900.06;4924997;29;20119;-71
2022/11/20 07:32:41;;;;;;;11.23;10.63;;;;;;;-143.83;100.00;62900.06;4924960;29;20031;-71
2022/11/20 07:35:07;;;;;;;10.63;10.02;;;;;;;-143.83;100.00;62900.06;4912560;29;20043;-71
2022/11/20 07:37:36;;;;;;;11.73;11.05;;;;;;;-143.83;100.00;62900.06;4923155;29;20058;-72
2022/11/20 07:40:02;;;;;;;11.38;10.77;;;;;;;-143.83;100.00;62900.06;4901912;29;20036;-71
2022/11/20 07:42:28;;;;;;;12.07;11.38;;;;;;;-143.83;100.00;62900.06;4920807;29;20028;-72
2022/11/20 07:44:55;;;;;;;10.20;9.70;;;;;;;-143.83;100.00;62900.06;4920478;29;20032;-71
2022/11/20 07:47:21;;;;;;;12.52;11.73;;;;;;;-143.83;100.00;62900.06;4904636;29;20062;-71
2022/11/20 07:49:47;;;;;;;10.95;10.35;;;;;;;-143.83;100.00;62900.06;4917103;29;20151;-71
2022/11/20 07:52:12;;;;;;;11.98;11.27;;;;;;;-143.83;100.00;62900.06;4918527;29;20039;-72
2022/11/20 07:54:37;;;;;;;10.07;9.57;;;;;;;-143.83;100.00;62900.06;4928202;29;20403;-72
2022/11/20 07:57:03;;;;;;;10.63;10.05;;;;;;;-143.83;100.00;62900.06;4928010;29;20122;-71
2022/11/20 07:59:28;;;;;;;9.40;9.00;;;;;;;-143.83;100.00;62900.06;4910072;29;20023;-71
2022/11/20 08:01:54;;;;;;;10.27;9.77;;;;;;;-143.83;100.00;62900.06;4913034;29;20042;-71
2022/11/20 08:04:20;;;;;;;11.07;10.48;;;;;;;-143.83;100.00;62900.06;4922640;29;20035;-71
2022/11/20 08:06:46;;;;;;;10.10;9.60;;;;;;;-143.83;100.00;62900.06;4912022;29;20035;-72
2022/11/20 08:09:12;;;;;;;10.02;9.52;;;;;;;-143.83;100.00;62900.06;4907240;29;20063;-70
2022/11/20 08:14:23;;;;;;;10.15;9.65;;;;;;;-143.83;100.00;62900.06;4885953;29;20051;-71
2022/11/20 08:16:49;;;;;;;9.77;9.27;;;;;;;-143.83;100.00;62900.06;4929861;29;20035;-72
2022/11/20 08:19:17;;;;;;;9.60;9.10;;;;;;;-143.83;100.00;62900.06;4923703;29;20042;-72
2022/11/20 08:21:43;;;;;;;9.75;9.25;;;;;;;-143.83;100.00;62900.06;4924943;29;20036;-69
2022/11/20 08:24:09;;;;;;;10.10;9.60;;;;;;;-143.83;100.00;62900.06;4927047;29;20047;-72
2022/11/20 08:26:36;;;;;;;10.50;9.95;;;;;;;-143.83;100.00;62900.06;4924321;29;20043;-73
2022/11/20 08:29:04;;;;;;;10.10;9.60;;;;;;;-143.83;100.00;62900.06;4922219;29;20516;-75
2022/11/20 08:31:31;;;;;;;10.52;9.98;;;;;;;-143.83;100.00;62900.06;4930823;29;20119;-77
2022/11/20 08:33:56;;;;;;;9.98;9.48;;;;;;;-143.83;100.00;62900.06;4916249;29;20027;-77
2022/11/20 08:36:23;;;;;;;9.90;9.40;;;;;;;-143.83;100.00;62900.06;4908060;29;20128;-73
2022/11/20 08:38:55;;;;;;;10.10;9.60;;;;;;;-143.83;100.00;62900.06;4909045;29;20408;-73
2022/11/20 08:41:25;;;;;;;10.73;10.13;;;;;;;-143.83;100.00;62900.06;4908729;29;20024;-71
2022/11/20 08:44:03;;;;;;;9.95;9.45;;;;;;;-143.83;100.00;62900.06;4926893;29;20054;-75
2022/11/20 08:46:36;;;;;;;10.45;9.88;;;;;;;-143.83;100.00;62900.06;4927891;29;20531;-77
2022/11/20 08:49:03;;;;;;;9.80;9.30;;;;;;;-143.83;100.00;62900.06;4909273;29;20451;-77
2022/11/20 08:51:28;;;;;;;9.68;9.18;;;;;;;-143.83;100.00;62900.06;4929263;29;20091;-78
2022/11/20 08:53:54;;;;;;;10.57;9.98;;;;;;;-143.83;100.00;62900.06;4922692;29;20028;-78
2022/11/20 08:56:20;;;;;;;9.20;8.80;;;;;;;-143.83;100.00;62900.06;4929115;29;21004;-79
2022/11/20 08:58:46;;;;;;;10.35;9.85;;;;;;;-143.83;100.00;62900.06;4924069;29;20526;-78
2022/11/20 09:01:11;;;;;;;9.50;9.10;;;;;;;-143.83;100.00;62900.06;4908131;29;20040;-79
2022/11/20 09:03:38;;;;;;;10.20;9.70;;;;;;;-143.83;100.00;62900.06;4894916;29;20035;-79
2022/11/20 09:06:06;;;;;;;10.57;10.00;;;;;;;-143.83;100.00;62900.06;4933287;29;20130;-79
2022/11/20 09:08:33;;;;;;;9.88;9.38;;;;;;;-143.83;100.00;62900.06;4929255;29;20024;-78
2022/11/20 09:10:58;;;;;;;10.00;9.50;;;;;;;-143.83;100.00;62900.06;4910800;29;20032;-79
2022/11/20 09:13:26;;;;;;;9.65;9.15;;;;;;;-143.83;100.00;62900.06;4931005;29;20035;-79
2022/11/20 09:15:55;;;;;;;9.27;8.88;;;;;;;-143.83;100.00;62900.06;4926313;29;20036;-78
2022/11/20 09:18:20;;;;;;;10.38;9.85;;;;;;;-143.83;100.00;62900.06;4909988;29;20122;-78
2022/11/20 09:20:46;;;;;;;11.02;10.43;;;;;;;-143.83;100.00;62900.06;4922880;29;20148;-79
2022/11/20 09:23:11;;;;;;;10.27;9.75;;;;;;;-143.83;100.00;62900.06;4926978;29;20048;-77
2022/11/20 09:25:37;;;;;;;9.80;9.30;;;;;;;-143.83;100.00;62900.06;4925476;29;20442;-78
2022/11/20 09:28:02;;;;;;;10.85;10.25;;;;;;;-143.83;100.00;62900.06;4929273;29;20031;-78
2022/11/20 09:30:28;;;;;;;11.23;10.63;;;;;;;-143.83;100.00;62900.06;4925962;29;20028;-78
2022/11/20 09:32:53;;;;;;;10.15;9.65;;;;;;;-143.83;100.00;62900.06;4930625;29;20039;-77
2022/11/20 09:35:19;;;;;;;9.90;9.40;;;;;;;-143.83;100.00;62900.06;4930873;29;20028;-77
2022/11/20 09:37:46;;;;;;;10.63;10.02;;;;;;;-143.83;100.00;62900.06;4912469;29;20027;-79
2022/11/20 09:40:21;;;;;;;10.55;10.02;;;;;;;-143.83;100.00;62900.06;4925969;29;20035;-78
2022/11/20 09:43:12;;;;;;;10.80;10.20;;;;;;;-143.83;100.00;62900.06;4931076;29;20050;-78
2022/11/20 09:45:49;;;;;;;9.25;8.85;;;;;;;-143.83;100.00;62900.06;4908876;29;20031;-79
2022/11/20 09:48:38;;;;;;;10.10;9.60;;;;;;;-143.83;100.00;62900.06;4928286;29;20063;-80
2022/11/20 09:51:27;;;;;;;9.95;9.45;;;;;;;-143.83;100.00;62900.06;4894995;29;20067;-79
2022/11/20 09:54:12;;;;;;;9.85;9.35;;;;;;;-143.83;100.00;62900.06;4927021;29;20045;-78
2022/11/20 09:56:42;;;;;;;10.27;9.77;;;;;;;-143.83;100.00;62900.06;4921841;29;20046;-77
2022/11/20 09:59:32;;;;;;;10.15;9.65;;;;;;;-143.83;100.00;62900.06;4929849;29;20034;-78
2022/11/20 10:02:00;;;;;;;11.75;11.05;;;;;;;-143.83;100.00;62900.06;4920336;29;20423;-78
2022/11/20 10:04:26;;;;;;;11.73;11.02;;;;;;;-143.83;100.00;62900.06;4925574;29;20039;-78
2022/11/20 10:07:03;;;;;;;11.13;10.52;;;;;;;-143.83;100.00;62900.06;4928074;29;20107;-77
2022/11/20 10:09:34;;;;;;;10.80;10.20;;;;;;;-143.83;100.00;62900.06;4920164;29;20028;-80
2022/11/20 10:12:13;;;;;;;9.60;9.15;;;;;;;-143.83;100.00;62900.06;4908182;29;20496;-79
2022/11/20 10:14:54;;;;;;;10.68;10.07;;;;;;;-143.83;100.00;62900.06;4929357;29;20043;-79
2022/11/20 10:17:44;;;;;;;10.27;9.77;;;;;;;-143.83;100.00;62900.06;4926546;29;20035;-80
2022/11/20 10:20:42;;;;;;;10.32;9.82;;;;;;;-143.83;100.00;62900.06;4927452;29;20028;-79
2022/11/20 10:23:44;;;;;;;10.57;9.98;;;;;;;-143.83;100.00;62900.06;4923192;29;20044;-78
2022/11/20 10:26:22;;;;;;;10.75;10.15;;;;;;;-143.83;100.00;62900.06;4926944;29;20039;-77
2022/11/20 10:29:06;;;;;;;10.95;10.35;;;;;;;-143.83;100.00;62900.06;4908715;29;20045;-78
2022/11/20 10:31:39;;;;;;;9.50;9.10;;;;;;;-143.83;100.00;62900.06;4924273;29;20164;-79
2022/11/20 10:34:17;;;;;;;9.43;9.02;;;;;;;-143.83;100.00;62900.06;4929030;29;20039;-79
2022/11/20 10:37:06;;;;;;;10.63;10.02;;;;;;;-143.83;100.00;62900.06;4933201;29;20035;-78
2022/11/20 10:39:58;;;;;;;9.82;9.32;;;;;;;-143.83;100.00;62900.06;4916243;29;20027;-79
2022/11/20 10:42:46;;;;;;;10.20;9.70;;;;;;;-143.83;100.00;62900.06;4928317;29;20050;-80
2022/11/20 10:45:23;;;;;;;9.35;8.95;;;;;;;-143.83;100.00;62900.06;4921847;29;20099;-81
2022/11/20 10:47:51;;;;;;;9.75;9.25;;;;;;;-143.83;100.00;62900.06;4931092;29;20040;-79
2022/11/20 10:50:20;;;;;;;10.13;9.63;;;;;;;-143.83;100.00;62900.06;4934523;29;20056;-78
2022/11/20 10:52:57;;;;;;;10.52;9.95;;;;;;;-143.83;100.00;62900.06;4907364;29;20056;-80
2022/11/20 10:55:42;;;;;;;9.80;9.30;;;;;;;-143.83;100.00;62900.06;4927765;29;20028;-80
2022/11/20 10:58:16;;;;;;;10.98;10.38;;;;;;;-143.83;100.00;62900.06;4930813;29;20036;-79
2022/11/20 11:00:42;;;;;;;10.40;9.90;;;;;;;-143.83;100.00;62900.06;4907785;29;20039;-79
2022/11/20 11:03:29;;;;;;;11.23;10.63;;;;;;;-143.83;100.00;62900.06;4913387;29;20456;-78
2022/11/20 11:06:31;;;;;;;10.00;9.50;;;;;;;-143.83;100.00;62900.06;4927669;29;20035;-79
2022/11/20 11:09:01;;;;;;;10.75;10.15;;;;;;;-143.83;100.00;62900.06;4911945;29;20036;-78
2022/11/20 11:11:29;;;;;;;9.93;9.43;;;;;;;-143.83;100.00;62900.06;4911698;29;20103;-78
2022/11/20 11:14:10;;;;;;;10.40;9.90;;;;;;;-143.83;100.00;62900.06;4907700;29;20103;-79